Time;durP1;ratioP1;P1;durP2;ratioP2;P2;SDS_P1;SDS_P2;PMS_P1;PMS_P2;Temp;Humidity;BMP_temperature;BMP_pressure;BME280_temperature;BME280_humidity;BME280_pressure;Samples;Min_cycle;Max_cycle;Signal;HPM_P1;HPM_P2
2023/03/30 00:00:17;;;;;;;17.13;7.70;;;8.00;99.90;;;;;;5053544;28;20286;-79
2023/03/30 00:02:49;;;;;;;8.05;7.25;;;7.90;99.90;;;;;;5040683;28;20289;-80
2023/03/30 00:05:17;;;;;;;8.80;6.80;;;7.90;99.90;;;;;;5040320;28;20227;-80
2023/03/30 00:07:45;;;;;;;11.35;8.02;;;8.20;99.90;;;;;;5050598;28;20382;-80
2023/03/30 00:10:16;;;;;;;11.10;8.05;;;8.10;99.90;;;;;;5059737;28;20701;-80
2023/03/30 00:12:45;;;;;;;12.32;9.02;;;8.10;99.90;;;;;;5045539;28;20269;-79
2023/03/30 00:15:16;;;;;;;12.48;8.85;;;8.30;99.90;;;;;;5032513;28;20588;-79
2023/03/30 00:17:44;;;;;;;10.38;6.90;;;8.30;99.90;;;;;;5042067;28;20323;-81
2023/03/30 00:20:12;;;;;;;12.98;8.68;;;8.40;99.90;;;;;;5048813;28;20206;-80
2023/03/30 00:22:40;;;;;;;8.75;6.55;;;8.30;99.90;;;;;;5052610;28;20505;-80
2023/03/30 00:25:10;;;;;;;12.73;6.90;;;8.20;99.90;;;;;;5040417;28;20225;-79
2023/03/30 00:27:38;;;;;;;13.57;7.32;;;7.90;99.90;;;;;;5049543;28;20722;-79
2023/03/30 00:30:07;;;;;;;9.15;6.28;;;7.80;99.90;;;;;;5040411;28;20210;-79
2023/03/30 00:32:35;;;;;;;11.05;7.45;;;7.90;99.90;;;;;;5036857;28;20240;-78
2023/03/30 00:35:04;;;;;;;11.80;7.28;;;8.00;99.90;;;;;;5045947;28;20216;-78
2023/03/30 00:37:31;;;;;;;8.18;7.13;;;8.00;99.90;;;;;;5042492;28;20403;-80
2023/03/30 00:39:58;;;;;;;13.55;8.50;;;8.00;99.90;;;;;;5039690;28;20254;-79
2023/03/30 00:42:25;;;;;;;10.30;7.93;;;7.90;99.90;;;;;;5037109;28;20507;-79
2023/03/30 00:45:07;;;;;;;12.90;7.07;;;8.00;99.90;;;;;;5040836;28;20259;-79
2023/03/30 00:47:42;;;;;;;12.88;7.40;;;7.80;99.90;;;;;;5043086;28;20231;-79
2023/03/30 00:50:09;;;;;;;9.05;7.88;;;7.80;99.90;;;;;;5038960;28;20238;-79
2023/03/30 00:52:38;;;;;;;8.98;6.35;;;7.90;99.90;;;;;;5052261;28;20229;-79
2023/03/30 00:55:07;;;;;;;10.20;6.10;;;7.90;99.90;;;;;;5050496;28;20207;-79
2023/03/30 00:57:37;;;;;;;10.55;8.18;;;7.90;99.90;;;;;;5063083;28;20201;-79
2023/03/30 01:00:11;;;;;;;6.38;5.78;;;7.90;99.90;;;;;;5072363;28;20185;-78
2023/03/30 01:02:45;;;;;;;10.75;8.10;;;7.90;99.90;;;;;;5061314;28;20259;-79
2023/03/30 01:05:12;;;;;;;11.38;6.80;;;7.90;99.90;;;;;;5048164;28;20210;-80
2023/03/30 01:07:41;;;;;;;10.80;7.50;;;7.80;99.90;;;;;;5047995;28;20208;-79
2023/03/30 01:10:09;;;;;;;9.10;6.60;;;7.80;99.90;;;;;;5054468;28;20392;-77
2023/03/30 01:12:37;;;;;;;10.07;6.78;;;7.70;99.90;;;;;;5045769;28;20778;-79
2023/03/30 01:15:06;;;;;;;7.28;6.57;;;7.70;99.90;;;;;;5046040;28;20556;-79
2023/03/30 01:17:51;;;;;;;11.38;7.40;;;7.70;99.90;;;;;;5044545;28;20208;-78
2023/03/30 01:21:02;;;;;;;8.52;7.32;;;7.70;99.90;;;;;;5032727;28;20519;-79
2023/03/30 01:24:14;;;;;;;9.07;5.97;;;7.70;99.90;;;;;;5028936;28;20585;-78
2023/03/30 01:26:57;;;;;;;9.23;6.05;;;7.60;99.90;;;;;;5039481;28;20211;-80
2023/03/30 01:29:37;;;;;;;9.20;6.53;;;7.80;99.90;;;;;;5047382;28;20210;-80
2023/03/30 01:32:25;;;;;;;10.82;7.72;;;7.90;99.90;;;;;;5045098;28;20501;-80
2023/03/30 01:35:15;;;;;;;9.38;6.70;;;7.90;99.90;;;;;;5051928;28;20235;-80
2023/03/30 01:38:00;;;;;;;9.05;5.80;;;7.90;99.90;;;;;;5051314;28;20550;-80
2023/03/30 01:40:35;;;;;;;7.80;6.40;;;7.80;99.90;;;;;;5036251;28;20653;-79
2023/03/30 01:43:26;;;;;;;5.15;4.65;;;7.80;99.90;;;;;;5047088;28;20258;-77
2023/03/30 01:46:00;;;;;;;7.82;6.47;;;7.80;99.90;;;;;;5050687;28;20207;-80
2023/03/30 01:48:44;;;;;;;10.45;5.68;;;7.60;99.90;;;;;;5046950;28;20226;-79
2023/03/30 01:51:22;;;;;;;6.75;5.35;;;7.70;99.90;;;;;;5044385;28;20216;-80
2023/03/30 01:53:58;;;;;;;9.05;7.05;;;7.80;99.90;;;;;;5045577;28;20463;-79
2023/03/30 01:56:39;;;;;;;5.75;5.20;;;7.70;99.90;;;;;;5042743;28;20193;-79
2023/03/30 01:59:18;;;;;;;6.20;5.60;;;7.60;99.90;;;;;;5040005;28;20211;-80
2023/03/30 02:01:49;;;;;;;11.45;6.90;;;7.60;99.90;;;;;;5050281;28;20604;-79
2023/03/30 02:04:21;;;;;;;7.32;4.93;;;7.50;99.90;;;;;;5048777;28;20500;-79
2023/03/30 02:06:57;;;;;;;10.35;5.22;;;7.60;99.90;;;;;;5050205;28;20208;-79
2023/03/30 02:09:26;;;;;;;8.40;5.65;;;7.50;99.90;;;;;;5044235;28;20204;-81
2023/03/30 02:11:54;;;;;;;6.53;5.10;;;7.50;99.90;;;;;;5054914;28;20411;-79
2023/03/30 02:14:31;;;;;;;9.80;5.22;;;7.50;99.90;;;;;;5039213;28;20436;-79
2023/03/30 02:17:16;;;;;;;7.95;5.00;;;7.60;99.90;;;;;;5047772;28;20202;-80
2023/03/30 02:19:46;;;;;;;7.43;6.63;;;7.50;99.90;;;;;;5043457;28;20266;-80
2023/03/30 02:22:16;;;;;;;7.60;6.80;;;7.60;99.90;;;;;;5040151;28;20208;-80
2023/03/30 02:24:46;;;;;;;5.72;4.45;;;7.60;99.90;;;;;;5048021;28;20214;-80
2023/03/30 02:27:13;;;;;;;6.55;5.88;;;7.60;99.90;;;;;;5047853;28;20246;-80
2023/03/30 02:29:42;;;;;;;8.23;4.65;;;7.60;99.90;;;;;;5050646;28;20243;-80
2023/03/30 02:32:19;;;;;;;9.75;6.25;;;7.70;99.90;;;;;;5055682;28;20208;-79
2023/03/30 02:35:06;;;;;;;8.02;6.35;;;7.60;99.90;;;;;;5042319;28;20203;-79
2023/03/30 02:37:58;;;;;;;10.65;7.50;;;7.60;99.90;;;;;;5042662;28;20295;-79
2023/03/30 02:40:51;;;;;;;5.82;5.03;;;7.60;99.90;;;;;;5037460;28;20195;-82
2023/03/30 02:43:32;;;;;;;9.43;5.22;;;7.70;99.90;;;;;;5039562;28;20209;-80
2023/03/30 02:45:59;;;;;;;9.98;6.60;;;7.80;99.90;;;;;;5051501;28;20262;-79
2023/03/30 02:48:40;;;;;;;10.15;7.72;;;7.90;99.90;;;;;;5041167;28;20588;-78
2023/03/30 02:51:26;;;;;;;6.25;5.38;;;7.90;99.90;;;;;;5046178;28;20212;-79
2023/03/30 02:54:01;;;;;;;11.75;6.97;;;7.90;99.90;;;;;;5037460;28;20283;-79
2023/03/30 02:57:02;;;;;;;8.63;6.20;;;7.90;99.90;;;;;;5034299;28;20515;-79
2023/03/30 03:00:13;;;;;;;6.80;6.18;;;7.80;99.90;;;;;;5034582;28;20204;-80
2023/03/30 03:02:44;;;;;;;8.15;6.57;;;8.00;99.90;;;;;;5044926;28;20559;-79
2023/03/30 03:05:14;;;;;;;7.30;4.78;;;8.20;99.90;;;;;;5046440;28;20209;-80
2023/03/30 03:07:43;;;;;;;6.47;5.88;;;8.30;99.90;;;;;;5040017;28;20553;-80
2023/03/30 03:10:10;;;;;;;6.63;5.75;;;8.40;99.90;;;;;;5045561;28;20220;-79
2023/03/30 03:12:38;;;;;;;6.20;5.55;;;8.20;99.90;;;;;;5049355;28;20811;-78
2023/03/30 03:15:05;;;;;;;9.68;7.00;;;8.10;99.90;;;;;;5046175;28;20196;-78
2023/03/30 03:17:35;;;;;;;5.80;5.22;;;8.10;99.90;;;;;;5043801;28;20207;-79
2023/03/30 03:20:03;;;;;;;10.07;5.80;;;8.10;99.90;;;;;;5045067;28;20545;-79
2023/03/30 03:22:30;;;;;;;6.00;4.95;;;8.10;99.90;;;;;;5053123;28;20421;-81
2023/03/30 03:24:58;;;;;;;8.75;7.55;;;8.00;99.90;;;;;;5046522;28;20602;-79
2023/03/30 03:27:27;;;;;;;6.88;4.97;;;8.00;99.90;;;;;;5039708;28;20502;-79
2023/03/30 03:29:54;;;;;;;8.80;6.97;;;8.00;99.90;;;;;;5045808;28;20213;-79
2023/03/30 03:32:21;;;;;;;10.80;7.63;;;8.10;99.90;;;;;;5038792;28;20254;-79
2023/03/30 03:34:48;;;;;;;10.70;7.60;;;8.20;99.90;;;;;;5046243;28;20239;-78
2023/03/30 03:37:14;;;;;;;12.23;6.00;;;8.10;99.90;;;;;;5040369;28;20201;-79
2023/03/30 03:39:41;;;;;;;7.53;6.50;;;8.10;99.90;;;;;;5047649;28;20215;-79
2023/03/30 03:42:08;;;;;;;10.18;7.80;;;8.10;99.90;;;;;;5048107;28;20208;-78
2023/03/30 03:44:36;;;;;;;11.15;7.68;;;8.10;99.90;;;;;;5046052;28;20246;-78
2023/03/30 03:47:03;;;;;;;9.68;7.82;;;8.00;99.90;;;;;;5051043;28;20512;-78
2023/03/30 03:49:30;;;;;;;10.50;7.60;;;8.10;99.90;;;;;;5048613;28;20201;-79
2023/03/30 03:51:57;;;;;;;8.73;6.82;;;8.00;99.90;;;;;;5052191;28;20488;-80
2023/03/30 03:54:24;;;;;;;14.30;9.60;;;8.00;99.90;;;;;;5048951;28;20229;-79
2023/03/30 03:56:51;;;;;;;17.52;10.90;;;8.10;99.90;;;;;;5052372;28;20420;-79
2023/03/30 03:59:18;;;;;;;12.25;7.95;;;8.30;99.90;;;;;;5039574;28;20209;-79
2023/03/30 04:01:44;;;;;;;28.60;15.02;;;8.20;99.90;;;;;;5041885;28;20205;-80
2023/03/30 04:04:11;;;;;;;16.52;11.63;;;8.10;99.90;;;;;;5048685;28;20272;-78
2023/03/30 04:06:39;;;;;;;22.98;12.70;;;8.10;99.90;;;;;;5042998;28;20203;-79
2023/03/30 04:09:06;;;;;;;7.55;6.10;;;8.20;99.90;;;;;;5053269;28;20214;-80
2023/03/30 04:11:32;;;;;;;14.43;8.65;;;8.10;99.90;;;;;;5041350;28;20211;-80
2023/03/30 04:13:59;;;;;;;8.65;6.70;;;8.20;99.90;;;;;;5033691;28;20280;-80
2023/03/30 04:16:27;;;;;;;9.30;5.78;;;8.30;99.90;;;;;;5044720;28;20215;-79
2023/03/30 04:18:56;;;;;;;9.40;6.80;;;8.50;99.90;;;;;;5046680;28;20235;-80
2023/03/30 04:21:24;;;;;;;8.32;6.40;;;8.70;99.90;;;;;;5044632;28;20234;-78
2023/03/30 04:23:52;;;;;;;5.25;4.75;;;8.60;99.90;;;;;;5046899;28;20264;-80
2023/03/30 04:26:18;;;;;;;9.38;6.07;;;8.60;99.90;;;;;;5038834;28;20246;-80
2023/03/30 04:28:45;;;;;;;6.93;5.45;;;8.80;99.90;;;;;;5044354;28;20243;-80
2023/03/30 04:31:13;;;;;;;11.77;8.82;;;8.70;99.90;;;;;;5040749;28;20493;-80
2023/03/30 04:33:51;;;;;;;19.13;8.73;;;8.30;99.90;;;;;;5026509;28;20263;-79
2023/03/30 04:36:20;;;;;;;9.13;6.90;;;8.20;99.90;;;;;;5041443;28;20386;-80
2023/03/30 04:38:57;;;;;;;10.13;6.47;;;8.00;99.90;;;;;;5042034;28;20512;-81
2023/03/30 04:41:28;;;;;;;10.88;8.68;;;8.00;99.90;;;;;;5045598;28;20264;-80
2023/03/30 04:43:57;;;;;;;11.80;8.63;;;8.00;99.90;;;;;;5036602;28;20211;-80
2023/03/30 04:46:24;;;;;;;11.35;6.72;;;8.00;99.90;;;;;;5035574;28;20204;-80
2023/03/30 04:48:50;;;;;;;9.38;6.88;;;7.90;99.90;;;;;;5043053;28;20236;-79
2023/03/30 04:51:17;;;;;;;6.55;5.85;;;7.90;99.90;;;;;;5046572;28;20215;-78
2023/03/30 04:53:44;;;;;;;9.65;6.07;;;7.90;99.90;;;;;;5047699;28;20230;-80
2023/03/30 04:56:12;;;;;;;10.50;7.95;;;8.00;99.90;;;;;;5050440;28;20200;-81
2023/03/30 04:58:42;;;;;;;8.98;6.10;;;8.10;99.90;;;;;;5039194;28;20203;-81
2023/03/30 05:01:09;;;;;;;13.57;6.72;;;8.00;99.90;;;;;;5045324;28;20214;-80
2023/03/30 05:03:36;;;;;;;7.55;6.18;;;8.10;99.90;;;;;;5043456;28;20227;-82
2023/03/30 05:06:03;;;;;;;9.48;6.28;;;8.10;99.90;;;;;;5036826;28;20453;-82
2023/03/30 05:08:32;;;;;;;10.52;6.38;;;8.10;99.90;;;;;;5054822;28;20207;-81
2023/03/30 05:11:03;;;;;;;9.82;5.25;;;8.20;99.90;;;;;;5052847;28;20208;-81
2023/03/30 05:13:32;;;;;;;8.52;5.65;;;8.10;99.90;;;;;;5036552;28;20231;-81
2023/03/30 05:16:00;;;;;;;7.32;6.00;;;8.20;99.90;;;;;;5043426;28;20229;-82
2023/03/30 05:18:27;;;;;;;7.35;6.15;;;8.30;99.90;;;;;;5051066;28;20207;-81
2023/03/30 05:20:58;;;;;;;6.95;6.07;;;8.30;99.90;;;;;;5061925;28;20237;-85
2023/03/30 05:23:25;;;;;;;9.70;5.97;;;8.20;99.90;;;;;;5043802;28;20225;-83
2023/03/30 05:25:54;;;;;;;6.55;5.85;;;8.10;99.90;;;;;;5054722;28;20207;-82
2023/03/30 05:28:21;;;;;;;11.50;8.45;;;8.10;99.90;;;;;;5046088;28;20204;-81
2023/03/30 05:30:54;;;;;;;9.55;6.38;;;8.10;99.90;;;;;;5054007;28;20199;-81
2023/03/30 05:33:21;;;;;;;11.70;8.65;;;8.10;99.90;;;;;;5068827;28;20213;-82
2023/03/30 05:35:53;;;;;;;10.88;8.77;;;8.10;99.90;;;;;;5059013;28;20200;-83
2023/03/30 05:38:20;;;;;;;8.55;6.32;;;8.10;99.90;;;;;;5063570;28;20202;-81
2023/03/30 05:40:52;;;;;;;10.70;6.97;;;8.10;99.90;;;;;;5052473;28;20492;-81
2023/03/30 05:43:19;;;;;;;8.45;6.38;;;8.10;99.90;;;;;;5043704;28;20660;-81
2023/03/30 05:45:46;;;;;;;8.60;6.60;;;8.10;99.90;;;;;;5041068;28;20234;-81
2023/03/30 05:48:14;;;;;;;8.65;7.40;;;8.20;99.90;;;;;;5053995;28;20404;-82
2023/03/30 05:50:41;;;;;;;10.70;8.10;;;8.40;99.90;;;;;;5054278;28;20227;-81
2023/03/30 05:53:09;;;;;;;9.23;7.22;;;8.60;99.90;;;;;;5051208;28;20236;-81
2023/03/30 05:55:36;;;;;;;10.48;7.10;;;9.00;99.90;;;;;;5050246;28;20204;-82
2023/03/30 05:58:08;;;;;;;8.50;6.85;;;9.30;99.90;;;;;;5053942;28;20230;-80
2023/03/30 06:00:36;;;;;;;7.30;6.40;;;9.50;99.90;;;;;;5045913;28;20219;-80
2023/03/30 06:03:03;;;;;;;7.25;6.38;;;9.70;99.90;;;;;;5044450;28;20209;-80
2023/03/30 06:05:34;;;;;;;9.65;6.45;;;9.70;99.90;;;;;;5054710;28;20213;-80
2023/03/30 06:08:00;;;;;;;10.73;7.40;;;9.70;99.90;;;;;;5052005;28;20209;-81
2023/03/30 06:10:27;;;;;;;9.80;7.13;;;9.50;99.90;;;;;;5051240;28;20551;-80
2023/03/30 06:12:54;;;;;;;8.23;6.45;;;9.50;99.90;;;;;;5052497;28;20234;-80
2023/03/30 06:15:21;;;;;;;8.38;6.85;;;9.50;99.90;;;;;;5043872;28;20315;-81
2023/03/30 06:17:50;;;;;;;8.27;6.97;;;9.50;99.90;;;;;;5053136;28;20211;-82
2023/03/30 06:20:20;;;;;;;8.27;7.20;;;9.50;99.90;;;;;;5044593;28;20201;-81
2023/03/30 06:22:47;;;;;;;8.95;6.20;;;9.50;99.90;;;;;;5045583;28;20219;-81
2023/03/30 06:25:14;;;;;;;8.65;6.80;;;9.40;99.90;;;;;;5049517;28;20607;-81
2023/03/30 06:27:41;;;;;;;7.85;6.38;;;9.60;99.90;;;;;;5039931;28;20205;-79
2023/03/30 06:30:10;;;;;;;7.65;6.05;;;9.60;99.90;;;;;;5043598;28;20596;-80
2023/03/30 06:32:39;;;;;;;7.53;6.47;;;9.80;99.90;;;;;;5050274;28;20213;-79
2023/03/30 06:35:06;;;;;;;11.80;6.68;;;9.90;99.90;;;;;;5042474;28;20232;-80
2023/03/30 06:37:35;;;;;;;7.22;5.88;;;10.00;99.90;;;;;;5038069;28;20276;-82
2023/03/30 06:40:13;;;;;;;9.50;6.63;;;10.00;99.90;;;;;;5045277;28;20214;-81
2023/03/30 06:42:45;;;;;;;9.10;6.68;;;10.20;99.90;;;;;;5042399;28;20367;-79
2023/03/30 06:45:13;;;;;;;7.30;6.20;;;10.20;99.90;;;;;;5037988;28;20558;-81
2023/03/30 06:47:40;;;;;;;10.52;6.90;;;10.10;99.90;;;;;;5053899;28;20218;-81
2023/03/30 06:50:07;;;;;;;9.40;6.85;;;10.20;99.90;;;;;;5046598;28;20406;-80
2023/03/30 06:52:36;;;;;;;8.10;6.25;;;10.30;99.90;;;;;;5046380;28;20324;-79
2023/03/30 06:55:04;;;;;;;8.43;6.35;;;10.60;99.90;;;;;;5045555;28;20277;-79
2023/03/30 06:57:31;;;;;;;7.53;5.75;;;10.90;99.90;;;;;;5038730;28;20249;-79
2023/03/30 06:59:58;;;;;;;8.27;6.63;;;11.00;99.90;;;;;;5043310;28;20214;-80
2023/03/30 07:02:25;;;;;;;9.02;7.10;;;11.30;99.90;;;;;;5040486;28;20386;-80
2023/03/30 07:04:52;;;;;;;16.25;6.75;;;11.40;99.90;;;;;;5048829;28;20222;-80
2023/03/30 07:07:19;;;;;;;7.97;6.25;;;11.60;99.90;;;;;;5039462;28;20250;-81
2023/03/30 07:09:46;;;;;;;7.38;6.10;;;11.60;99.90;;;;;;5047198;28;20242;-80
2023/03/30 07:12:13;;;;;;;8.38;7.18;;;12.00;99.90;;;;;;5045902;28;20212;-81
2023/03/30 07:14:40;;;;;;;14.73;9.52;;;12.80;99.90;;;;;;5043601;28;20290;-80
2023/03/30 07:17:07;;;;;;;11.18;8.27;;;13.70;99.90;;;;;;5046379;28;20208;-79
2023/03/30 07:19:35;;;;;;;11.95;7.47;;;14.10;99.90;;;;;;5035554;28;20204;-81
2023/03/30 07:22:03;;;;;;;10.77;6.07;;;14.30;99.90;;;;;;5036403;28;20215;-80
2023/03/30 07:24:32;;;;;;;7.72;6.90;;;14.90;99.90;;;;;;5046791;28;20284;-80
2023/03/30 07:26:59;;;;;;;15.33;7.23;;;15.60;99.90;;;;;;5045363;28;20235;-80
2023/03/30 07:29:27;;;;;;;7.50;6.00;;;15.80;99.90;;;;;;5038722;28;20430;-80
2023/03/30 07:31:55;;;;;;;11.03;6.57;;;15.40;99.90;;;;;;5062779;28;20412;-80
2023/03/30 07:34:22;;;;;;;7.07;5.80;;;15.00;99.90;;;;;;5035573;28;20829;-80
2023/03/30 07:36:51;;;;;;;7.40;6.23;;;14.30;99.90;;;;;;5045175;28;20445;-82
2023/03/30 07:39:18;;;;;;;13.60;7.00;;;14.10;99.90;;;;;;5046271;28;20453;-80
2023/03/30 07:41:45;;;;;;;7.40;6.60;;;14.30;99.90;;;;;;5041431;28;20477;-80
2023/03/30 07:44:12;;;;;;;9.03;5.73;;;15.00;99.90;;;;;;5035757;28;20450;-80
2023/03/30 07:46:41;;;;;;;8.90;6.40;;;16.10;99.90;;;;;;5048815;28;20867;-80
2023/03/30 07:49:08;;;;;;;7.90;6.60;;;17.40;99.90;;;;;;5038357;28;20491;-80
2023/03/30 07:51:35;;;;;;;14.03;7.77;;;18.70;99.90;;;;;;5046681;28;20437;-81
2023/03/30 07:54:02;;;;;;;6.87;4.80;;;19.80;99.90;;;;;;5037556;28;20486;-80
2023/03/30 07:56:30;;;;;;;8.53;5.17;;;21.30;99.90;;;;;;5036099;28;20414;-80
2023/03/30 07:58:59;;;;;;;6.30;5.20;;;19.90;99.90;;;;;;5043582;28;20477;-80
2023/03/30 08:01:30;;;;;;;9.37;5.43;;;20.70;99.90;;;;;;5035098;28;20432;-80
2023/03/30 08:03:57;;;;;;;8.27;6.50;;;21.20;99.90;;;;;;5036559;28;20755;-80
2023/03/30 08:06:24;;;;;;;6.27;5.67;;;20.40;99.90;;;;;;5044098;28;20438;-79
2023/03/30 08:08:51;;;;;;;8.87;4.73;;;19.50;99.90;;;;;;5044105;28;20503;-80
2023/03/30 08:11:19;;;;;;;11.57;5.27;;;19.00;99.90;;;;;;5037753;28;20434;-80
2023/03/30 08:13:47;;;;;;;8.07;7.40;;;18.90;99.90;;;;;;5035307;28;20477;-81
2023/03/30 08:16:15;;;;;;;7.53;4.90;;;20.60;99.90;;;;;;5034509;28;20707;-82
2023/03/30 08:18:46;;;;;;;7.73;5.80;;;20.40;99.90;;;;;;5039409;28;20423;-79
2023/03/30 08:21:13;;;;;;;6.00;4.90;;;20.00;99.90;;;;;;5038625;28;20648;-79
2023/03/30 08:23:40;;;;;;;6.87;5.40;;;18.80;99.90;;;;;;5033555;28;20427;-79
2023/03/30 08:26:06;;;;;;;6.00;5.00;;;17.80;99.90;;;;;;5034817;28;20425;-80
2023/03/30 08:28:33;;;;;;;5.70;5.10;;;17.20;99.90;;;;;;5035283;28;20820;-80
2023/03/30 08:31:05;;;;;;;5.53;4.90;;;16.90;99.90;;;;;;5033514;28;20950;-79
2023/03/30 08:33:33;;;;;;;8.40;6.00;;;16.60;99.90;;;;;;5036888;28;20476;-80
2023/03/30 08:36:01;;;;;;;12.83;5.67;;;16.50;99.90;;;;;;5040642;28;20489;-80
2023/03/30 08:38:28;;;;;;;15.23;6.33;;;16.40;99.90;;;;;;5037435;28;20412;-79
2023/03/30 08:40:55;;;;;;;5.93;5.07;;;16.00;99.90;;;;;;5039526;28;20480;-80
2023/03/30 08:43:44;;;;;;;15.70;7.80;;;16.00;99.90;;;;;;5036912;28;20762;-82
2023/03/30 08:46:14;;;;;;;7.03;5.47;;;15.90;99.90;;;;;;5039699;28;20662;-79
2023/03/30 08:48:43;;;;;;;5.60;5.10;;;17.00;99.90;;;;;;5040944;28;20534;-79
2023/03/30 08:51:20;;;;;;;9.97;7.73;;;18.10;99.90;;;;;;5039477;28;20452;-79
2023/03/30 08:53:53;;;;;;;12.00;5.47;;;19.90;99.90;;;;;;5046988;28;20436;-79
2023/03/30 08:56:26;;;;;;;7.50;5.63;;;21.70;99.90;;;;;;5039062;28;20423;-80
2023/03/30 08:59:15;;;;;;;6.97;5.10;;;22.80;99.90;;;;;;5040306;28;20423;-80
2023/03/30 09:01:49;;;;;;;6.10;4.70;;;23.70;99.90;;;;;;5031064;28;20424;-80
2023/03/30 09:04:55;;;;;;;6.97;4.70;;;24.30;99.90;;;;;;5040283;28;20430;-80
2023/03/30 09:07:50;;;;;;;5.33;4.40;;;24.10;99.90;;;;;;5034041;28;20412;-80
2023/03/30 09:10:20;;;;;;;5.03;4.53;;;24.20;99.90;;;;;;5034957;28;20441;-80
2023/03/30 09:12:50;;;;;;;7.90;4.03;;;23.70;99.90;;;;;;5042555;28;20486;-81
2023/03/30 09:15:24;;;;;;;4.60;4.20;;;23.00;99.90;;;;;;5037522;28;20542;-81
2023/03/30 09:18:28;;;;;;;4.23;3.60;;;23.00;99.90;;;;;;5052106;28;20433;-79
2023/03/30 09:21:00;;;;;;;7.10;4.13;;;22.70;99.90;;;;;;5036220;28;20412;-81
2023/03/30 09:23:29;;;;;;;6.13;4.10;;;21.40;99.90;;;;;;5042125;28;20473;-80
2023/03/30 09:26:27;;;;;;;15.80;4.60;;;20.70;99.90;;;;;;5043349;28;20443;-80
2023/03/30 09:29:17;;;;;;;4.67;3.63;;;20.50;99.90;;;;;;5055041;28;20408;-79
2023/03/30 09:32:02;;;;;;;4.60;3.50;;;19.30;99.90;;;;;;5034630;28;20411;-80
2023/03/30 09:35:03;;;;;;;7.30;4.57;;;19.10;99.90;;;;;;5038160;28;20462;-80
2023/03/30 09:37:31;;;;;;;6.53;4.37;;;19.70;99.90;;;;;;5038705;28;20427;-78
2023/03/30 09:39:58;;;;;;;6.23;4.30;;;19.90;99.90;;;;;;5045272;28;20428;-80
2023/03/30 09:42:54;;;;;;;5.60;3.77;;;20.60;99.90;;;;;;5047339;28;20746;-78
2023/03/30 09:45:33;;;;;;;11.80;5.27;;;21.10;99.90;;;;;;5050714;28;20453;-80
2023/03/30 09:48:07;;;;;;;10.83;4.27;;;21.40;99.90;;;;;;5041316;28;20441;-81
2023/03/30 09:50:43;;;;;;;3.53;3.20;;;20.90;99.90;;;;;;5051553;28;20415;-81
2023/03/30 09:53:28;;;;;;;5.70;4.33;;;20.20;99.90;;;;;;5040354;28;20430;-78
2023/03/30 09:56:09;;;;;;;10.90;4.20;;;19.30;99.90;;;;;;5050205;28;20461;-79
2023/03/30 09:58:37;;;;;;;4.90;3.77;;;19.10;99.90;;;;;;5041071;28;20453;-81
2023/03/30 10:01:06;;;;;;;6.97;3.33;;;19.10;99.90;;;;;;5047589;28;20449;-79
2023/03/30 10:03:34;;;;;;;7.00;4.07;;;19.20;99.90;;;;;;5038908;28;20445;-80
2023/03/30 10:06:03;;;;;;;6.27;4.07;;;19.30;99.90;;;;;;5038592;28;20539;-80
2023/03/30 10:08:31;;;;;;;4.60;3.13;;;19.40;99.90;;;;;;5040792;28;20444;-80
2023/03/30 10:10:59;;;;;;;3.73;2.73;;;19.50;99.90;;;;;;5043374;28;20420;-81
2023/03/30 10:13:40;;;;;;;4.43;3.23;;;19.60;99.90;;;;;;5052534;28;20436;-81
2023/03/30 10:16:17;;;;;;;6.77;4.07;;;19.60;99.90;;;;;;5039087;28;20487;-79
2023/03/30 10:18:45;;;;;;;6.70;3.67;;;19.70;99.90;;;;;;5046747;28;20843;-82
2023/03/30 10:21:13;;;;;;;3.43;3.17;;;19.70;99.90;;;;;;5041731;28;20456;-82
2023/03/30 10:23:43;;;;;;;5.00;3.30;;;19.40;99.90;;;;;;5046750;28;20954;-80
2023/03/30 10:26:17;;;;;;;6.83;3.67;;;19.10;99.90;;;;;;5042942;28;20427;-81
2023/03/30 10:28:56;;;;;;;4.60;3.40;;;18.60;99.90;;;;;;5040515;28;20413;-80
2023/03/30 10:31:26;;;;;;;4.70;3.90;;;18.60;99.90;;;;;;5040212;28;21022;-80
2023/03/30 10:33:59;;;;;;;7.80;4.20;;;19.00;99.90;;;;;;5031315;28;20459;-80
2023/03/30 10:36:33;;;;;;;5.13;3.47;;;19.40;99.90;;;;;;5038771;28;20448;-80
2023/03/30 10:39:21;;;;;;;4.53;3.10;;;19.70;99.90;;;;;;5030777;28;20427;-81
2023/03/30 10:41:49;;;;;;;4.70;4.13;;;19.40;99.90;;;;;;5035629;28;20418;-81
2023/03/30 10:44:50;;;;;;;7.73;3.93;;;19.40;99.90;;;;;;5036356;28;20430;-81
2023/03/30 10:47:45;;;;;;;3.67;3.27;;;19.60;99.90;;;;;;5050637;28;20493;-82
2023/03/30 10:50:34;;;;;;;6.27;4.23;;;19.80;99.90;;;;;;5035547;28;20450;-83
2023/03/30 10:53:49;;;;;;;4.43;3.27;;;20.00;99.90;;;;;;5037211;28;20505;-82
2023/03/30 10:56:26;;;;;;;6.33;3.03;;;20.00;99.90;;;;;;5039886;28;20799;-81
2023/03/30 10:59:17;;;;;;;6.80;4.87;;;19.80;99.90;;;;;;5040102;28;20473;-82
2023/03/30 11:01:59;;;;;;;7.30;3.57;;;19.30;99.90;;;;;;5028480;28;20415;-80
2023/03/30 11:04:35;;;;;;;4.97;3.70;;;18.80;99.90;;;;;;5046171;28;20739;-80
2023/03/30 11:07:11;;;;;;;10.33;5.00;;;18.70;99.90;;;;;;5032160;28;20845;-81
2023/03/30 11:09:41;;;;;;;4.77;4.13;;;18.80;99.90;;;;;;5046769;28;20466;-82
2023/03/30 11:12:15;;;;;;;6.80;4.07;;;19.00;99.90;;;;;;5033411;28;20426;-81
2023/03/30 11:14:46;;;;;;;4.77;3.33;;;18.80;99.90;;;;;;5052608;28;20407;-81
2023/03/30 11:17:32;;;;;;;7.17;3.87;;;18.80;99.90;;;;;;5033870;28;20411;-81
2023/03/30 11:20:26;;;;;;;5.13;4.00;;;18.90;99.90;;;;;;5046619;28;20415;-82
2023/03/30 11:23:19;;;;;;;11.50;4.30;;;18.70;99.90;;;;;;5045325;28;20419;-80
2023/03/30 11:26:05;;;;;;;10.23;4.87;;;18.30;99.90;;;;;;5043282;28;20452;-84
2023/03/30 11:28:52;;;;;;;8.57;4.43;;;18.10;99.90;;;;;;5040620;28;20528;-82
2023/03/30 11:31:44;;;;;;;5.90;3.30;;;17.90;99.90;;;;;;5051418;28;20664;-81
2023/03/30 11:34:20;;;;;;;7.00;4.83;;;17.80;99.90;;;;;;5049851;28;20510;-82
2023/03/30 11:37:26;;;;;;;4.57;4.17;;;17.80;99.90;;;;;;5049528;28;20504;-80
2023/03/30 11:40:13;;;;;;;4.20;3.53;;;17.90;99.90;;;;;;5037027;28;20424;-82
2023/03/30 11:42:41;;;;;;;8.30;4.30;;;17.90;99.90;;;;;;5049991;28;20491;-82
2023/03/30 11:45:17;;;;;;;7.33;3.90;;;17.70;99.90;;;;;;5055900;28;20463;-83
2023/03/30 11:48:10;;;;;;;7.23;4.00;;;17.30;99.90;;;;;;5051500;28;20785;-81
2023/03/30 11:51:01;;;;;;;9.67;4.40;;;17.20;99.90;;;;;;5042161;28;20447;-83
2023/03/30 11:53:41;;;;;;;5.80;5.20;;;17.30;99.90;;;;;;5044536;28;20412;-81
2023/03/30 11:56:31;;;;;;;4.70;4.20;;;17.40;99.90;;;;;;5055564;28;20498;-81
2023/03/30 11:59:19;;;;;;;12.90;5.53;;;17.60;99.90;;;;;;5039435;28;20438;-82
2023/03/30 12:02:13;;;;;;;5.17;4.57;;;17.70;99.90;;;;;;5041473;28;20403;-82
2023/03/30 12:04:48;;;;;;;6.20;4.67;;;17.50;99.90;;;;;;5050051;28;20482;-81
2023/03/30 12:07:38;;;;;;;7.47;5.00;;;17.30;99.90;;;;;;5052127;28;20444;-81
2023/03/30 12:10:15;;;;;;;9.70;5.47;;;17.10;99.90;;;;;;5045667;28;20926;-82
2023/03/30 12:12:44;;;;;;;9.23;5.80;;;17.10;99.90;;;;;;5047742;28;20437;-81
2023/03/30 12:15:33;;;;;;;6.73;4.83;;;16.90;99.90;;;;;;5042685;28;20460;-83
2023/03/30 12:18:28;;;;;;;8.53;4.60;;;17.00;99.90;;;;;;5031889;28;20464;-81
2023/03/30 12:21:04;;;;;;;8.23;5.60;;;16.90;99.90;;;;;;5044737;28;20411;-81
2023/03/30 12:23:36;;;;;;;7.90;5.17;;;16.80;99.90;;;;;;5041632;28;20431;-84
2023/03/30 12:26:17;;;;;;;6.93;4.90;;;16.80;99.90;;;;;;5041821;28;20450;-84
2023/03/30 12:28:47;;;;;;;10.30;6.60;;;16.70;99.90;;;;;;5055765;28;20465;-85
2023/03/30 12:32:01;;;;;;;6.47;4.90;;;16.50;99.90;;;;;;5056356;28;20403;-81
2023/03/30 12:34:40;;;;;;;11.50;5.37;;;16.30;99.90;;;;;;5047366;28;20774;-80
2023/03/30 12:37:21;;;;;;;16.90;5.97;;;16.40;99.90;;;;;;5043500;28;20499;-81
2023/03/30 12:40:16;;;;;;;8.27;5.87;;;16.60;99.90;;;;;;5036408;28;20400;-81
2023/03/30 12:43:02;;;;;;;13.73;5.73;;;16.80;99.90;;;;;;5067976;28;20470;-80
2023/03/30 12:45:32;;;;;;;10.77;4.53;;;17.10;99.90;;;;;;5049431;28;20477;-82
2023/03/30 12:48:00;;;;;;;7.30;5.70;;;17.40;99.90;;;;;;5053756;28;20451;-82
2023/03/30 12:50:59;;;;;;;9.80;5.67;;;17.50;99.90;;;;;;5042316;28;20669;-86
2023/03/30 12:53:34;;;;;;;6.00;5.33;;;17.60;99.90;;;;;;5057922;28;20464;-82
2023/03/30 12:56:27;;;;;;;9.73;5.60;;;17.60;99.90;;;;;;5039553;28;20424;-81
2023/03/30 12:59:07;;;;;;;6.50;5.03;;;18.10;99.90;;;;;;5046325;28;20440;-81
2023/03/30 13:01:59;;;;;;;9.07;5.20;;;18.00;99.90;;;;;;5041580;28;20939;-81
2023/03/30 13:04:33;;;;;;;5.20;4.70;;;18.00;99.90;;;;;;5040305;28;20445;-85
2023/03/30 13:07:05;;;;;;;9.37;6.30;;;18.10;99.90;;;;;;5049811;28;20465;-84
2023/03/30 13:09:58;;;;;;;6.50;4.27;;;18.10;99.90;;;;;;5057285;28;20448;-87
2023/03/30 13:12:40;;;;;;;8.27;4.80;;;17.70;99.90;;;;;;5040277;28;20442;-85
2023/03/30 13:15:45;;;;;;;6.23;4.17;;;17.40;99.90;;;;;;5050933;28;20449;-86
2023/03/30 13:18:28;;;;;;;6.73;4.00;;;17.10;99.90;;;;;;5038968;28;21071;-84
2023/03/30 13:20:55;;;;;;;5.67;5.17;;;17.20;99.90;;;;;;5036828;28;20460;-85
2023/03/30 13:23:32;;;;;;;4.93;4.40;;;17.20;99.90;;;;;;5033013;28;20676;-85